sensor_id;sensor_type;location;lat;lon;timestamp;temperature;humidity
74376;HTU21D;62812;55.188;61.302;2023-10-31T00:00:44;-0.45;81.68
74376;HTU21D;62812;55.188;61.302;2023-10-31T00:03:11;-0.47;81.97
74376;HTU21D;62812;55.188;61.302;2023-10-31T00:05:41;-0.47;81.39
74376;HTU21D;62812;55.188;61.302;2023-10-31T00:08:12;-0.50;81.54
74376;HTU21D;62812;55.188;61.302;2023-10-31T00:10:39;-0.51;81.44
74376;HTU21D;62812;55.188;61.302;2023-10-31T00:13:10;-0.50;81.78
74376;HTU21D;62812;55.188;61.302;2023-10-31T00:15:38;-0.47;81.85
74376;HTU21D;62812;55.188;61.302;2023-10-31T00:18:05;-0.46;81.84
74376;HTU21D;62812;55.188;61.302;2023-10-31T00:20:31;-0.43;81.72
74376;HTU21D;62812;55.188;61.302;2023-10-31T00:22:59;-0.41;81.63
74376;HTU21D;62812;55.188;61.302;2023-10-31T00:25:26;-0.42;81.30
74376;HTU21D;62812;55.188;61.302;2023-10-31T00:27:53;-0.43;81.71
74376;HTU21D;62812;55.188;61.302;2023-10-31T00:30:19;-0.40;81.62
74376;HTU21D;62812;55.188;61.302;2023-10-31T00:32:46;-0.42;81.53
74376;HTU21D;62812;55.188;61.302;2023-10-31T00:35:13;-0.44;81.62
74376;HTU21D;62812;55.188;61.302;2023-10-31T00:37:40;-0.43;81.79
74376;HTU21D;62812;55.188;61.302;2023-10-31T00:40:10;-0.44;81.46
74376;HTU21D;62812;55.188;61.302;2023-10-31T00:42:37;-0.43;81.25
74376;HTU21D;62812;55.188;61.302;2023-10-31T00:45:04;-0.42;81.35
74376;HTU21D;62812;55.188;61.302;2023-10-31T00:47:31;-0.45;81.65
74376;HTU21D;62812;55.188;61.302;2023-10-31T00:49:58;-0.40;81.15
74376;HTU21D;62812;55.188;61.302;2023-10-31T00:52:26;-0.43;81.08
74376;HTU21D;62812;55.188;61.302;2023-10-31T00:54:52;-0.43;81.49
74376;HTU21D;62812;55.188;61.302;2023-10-31T00:57:20;-0.44;81.34
74376;HTU21D;62812;55.188;61.302;2023-10-31T00:59:52;-0.46;81.51
74376;HTU21D;62812;55.188;61.302;2023-10-31T01:02:18;-0.45;81.71
74376;HTU21D;62812;55.188;61.302;2023-10-31T01:04:45;-0.45;81.55
74376;HTU21D;62812;55.188;61.302;2023-10-31T01:07:11;-0.46;81.93
74376;HTU21D;62812;55.188;61.302;2023-10-31T01:09:38;-0.45;81.62
74376;HTU21D;62812;55.188;61.302;2023-10-31T01:12:06;-0.45;81.50
74376;HTU21D;62812;55.188;61.302;2023-10-31T01:14:34;-0.45;81.82
74376;HTU21D;62812;55.188;61.302;2023-10-31T01:17:01;-0.49;81.98
74376;HTU21D;62812;55.188;61.302;2023-10-31T01:19:28;-0.46;81.81
74376;HTU21D;62812;55.188;61.302;2023-10-31T01:21:55;-0.45;81.79
74376;HTU21D;62812;55.188;61.302;2023-10-31T01:24:21;-0.46;82.01
74376;HTU21D;62812;55.188;61.302;2023-10-31T01:26:50;-0.44;81.83
74376;HTU21D;62812;55.188;61.302;2023-10-31T01:29:17;-0.41;82.02
74376;HTU21D;62812;55.188;61.302;2023-10-31T01:31:45;-0.41;81.58
74376;HTU21D;62812;55.188;61.302;2023-10-31T01:34:12;-0.39;81.92
74376;HTU21D;62812;55.188;61.302;2023-10-31T01:36:39;-0.37;81.76
74376;HTU21D;62812;55.188;61.302;2023-10-31T01:39:06;-0.37;81.21
74376;HTU21D;62812;55.188;61.302;2023-10-31T01:41:35;-0.39;81.21
74376;HTU21D;62812;55.188;61.302;2023-10-31T01:44:04;-0.40;81.05
74376;HTU21D;62812;55.188;61.302;2023-10-31T01:46:30;-0.37;81.31
74376;HTU21D;62812;55.188;61.302;2023-10-31T01:48:58;-0.35;81.22
74376;HTU21D;62812;55.188;61.302;2023-10-31T01:51:26;-0.32;80.94
74376;HTU21D;62812;55.188;61.302;2023-10-31T01:53:53;-0.29;81.07
74376;HTU21D;62812;55.188;61.302;2023-10-31T01:56:20;-0.27;80.57
74376;HTU21D;62812;55.188;61.302;2023-10-31T01:58:49;-0.26;80.80
74376;HTU21D;62812;55.188;61.302;2023-10-31T02:01:16;-0.25;80.49
74376;HTU21D;62812;55.188;61.302;2023-10-31T02:03:43;-0.23;80.40
74376;HTU21D;62812;55.188;61.302;2023-10-31T02:06:11;-0.22;80.41
74376;HTU21D;62812;55.188;61.302;2023-10-31T02:08:38;-0.17;80.24
74376;HTU21D;62812;55.188;61.302;2023-10-31T02:11:05;-0.17;80.07
74376;HTU21D;62812;55.188;61.302;2023-10-31T02:13:37;-0.19;80.08
74376;HTU21D;62812;55.188;61.302;2023-10-31T02:16:06;-0.22;79.85
74376;HTU21D;62812;55.188;61.302;2023-10-31T02:18:33;-0.21;80.11
74376;HTU21D;62812;55.188;61.302;2023-10-31T02:20:59;-0.22;80.01
74376;HTU21D;62812;55.188;61.302;2023-10-31T02:23:28;-0.24;80.87
74376;HTU21D;62812;55.188;61.302;2023-10-31T02:25:55;-0.25;80.79
74376;HTU21D;62812;55.188;61.302;2023-10-31T02:28:21;-0.26;81.46
74376;HTU21D;62812;55.188;61.302;2023-10-31T02:30:48;-0.24;81.56
74376;HTU21D;62812;55.188;61.302;2023-10-31T02:33:16;-0.21;81.53
74376;HTU21D;62812;55.188;61.302;2023-10-31T02:35:43;-0.16;81.27
74376;HTU21D;62812;55.188;61.302;2023-10-31T02:38:11;-0.13;81.33
74376;HTU21D;62812;55.188;61.302;2023-10-31T02:40:39;-0.11;81.30
74376;HTU21D;62812;55.188;61.302;2023-10-31T02:43:06;-0.08;81.40
74376;HTU21D;62812;55.188;61.302;2023-10-31T02:45:33;-0.06;80.86
74376;HTU21D;62812;55.188;61.302;2023-10-31T02:48:00;-0.08;80.87
74376;HTU21D;62812;55.188;61.302;2023-10-31T02:50:29;-0.05;81.15
74376;HTU21D;62812;55.188;61.302;2023-10-31T02:52:56;-0.05;81.01
74376;HTU21D;62812;55.188;61.302;2023-10-31T02:55:22;-0.05;81.49
74376;HTU21D;62812;55.188;61.302;2023-10-31T02:57:50;-0.03;81.53
74376;HTU21D;62812;55.188;61.302;2023-10-31T03:00:18;-0.02;81.30
74376;HTU21D;62812;55.188;61.302;2023-10-31T03:02:45;0.01;81.72
74376;HTU21D;62812;55.188;61.302;2023-10-31T03:05:13;0.06;81.44
74376;HTU21D;62812;55.188;61.302;2023-10-31T03:07:41;0.06;81.27
74376;HTU21D;62812;55.188;61.302;2023-10-31T03:10:07;0.04;81.19
74376;HTU21D;62812;55.188;61.302;2023-10-31T03:12:34;0.05;81.39
74376;HTU21D;62812;55.188;61.302;2023-10-31T03:15:05;0.09;81.27
74376;HTU21D;62812;55.188;61.302;2023-10-31T03:17:32;0.10;81.18
74376;HTU21D;62812;55.188;61.302;2023-10-31T03:19:59;0.08;81.35
74376;HTU21D;62812;55.188;61.302;2023-10-31T03:22:27;0.10;81.22
74376;HTU21D;62812;55.188;61.302;2023-10-31T03:24:56;0.10;81.20
74376;HTU21D;62812;55.188;61.302;2023-10-31T03:27:23;0.05;81.43
74376;HTU21D;62812;55.188;61.302;2023-10-31T03:29:50;0.08;81.39
74376;HTU21D;62812;55.188;61.302;2023-10-31T03:32:20;0.07;81.36
74376;HTU21D;62812;55.188;61.302;2023-10-31T03:34:48;0.07;81.76
74376;HTU21D;62812;55.188;61.302;2023-10-31T03:37:17;0.07;82.38
74376;HTU21D;62812;55.188;61.302;2023-10-31T03:39:44;0.06;82.62
74376;HTU21D;62812;55.188;61.302;2023-10-31T03:42:10;0.08;83.09
74376;HTU21D;62812;55.188;61.302;2023-10-31T03:44:37;0.13;83.01
74376;HTU21D;62812;55.188;61.302;2023-10-31T03:47:04;0.19;82.70
74376;HTU21D;62812;55.188;61.302;2023-10-31T03:49:32;0.23;82.83
74376;HTU21D;62812;55.188;61.302;2023-10-31T03:52:00;0.29;82.77
74376;HTU21D;62812;55.188;61.302;2023-10-31T03:54:27;0.27;82.84
74376;HTU21D;62812;55.188;61.302;2023-10-31T03:56:54;0.22;82.95
74376;HTU21D;62812;55.188;61.302;2023-10-31T03:59:24;0.25;82.93
74376;HTU21D;62812;55.188;61.302;2023-10-31T04:01:53;0.30;82.62
74376;HTU21D;62812;55.188;61.302;2023-10-31T04:04:20;0.32;83.00
74376;HTU21D;62812;55.188;61.302;2023-10-31T04:06:48;0.32;82.69
74376;HTU21D;62812;55.188;61.302;2023-10-31T04:09:15;0.35;82.54
74376;HTU21D;62812;55.188;61.302;2023-10-31T04:11:41;0.40;82.51
74376;HTU21D;62812;55.188;61.302;2023-10-31T04:14:09;0.38;82.34
74376;HTU21D;62812;55.188;61.302;2023-10-31T04:16:39;0.40;82.64
74376;HTU21D;62812;55.188;61.302;2023-10-31T04:19:05;0.44;82.73
74376;HTU21D;62812;55.188;61.302;2023-10-31T04:21:32;0.45;82.53
74376;HTU21D;62812;55.188;61.302;2023-10-31T04:24:01;0.44;82.79
74376;HTU21D;62812;55.188;61.302;2023-10-31T04:26:28;0.45;82.62
74376;HTU21D;62812;55.188;61.302;2023-10-31T04:28:54;0.47;82.61
74376;HTU21D;62812;55.188;61.302;2023-10-31T04:31:22;0.45;82.59
74376;HTU21D;62812;55.188;61.302;2023-10-31T04:33:50;0.46;82.36
74376;HTU21D;62812;55.188;61.302;2023-10-31T04:36:17;0.47;82.35
74376;HTU21D;62812;55.188;61.302;2023-10-31T04:38:45;0.49;82.19
74376;HTU21D;62812;55.188;61.302;2023-10-31T04:41:13;0.51;82.34
74376;HTU21D;62812;55.188;61.302;2023-10-31T04:43:40;0.51;82.06
74376;HTU21D;62812;55.188;61.302;2023-10-31T04:46:08;0.53;82.07
74376;HTU21D;62812;55.188;61.302;2023-10-31T04:48:34;0.54;82.07
74376;HTU21D;62812;55.188;61.302;2023-10-31T04:51:02;0.59;82.25
74376;HTU21D;62812;55.188;61.302;2023-10-31T04:53:29;0.59;82.29
74376;HTU21D;62812;55.188;61.302;2023-10-31T04:55:55;0.62;81.62
74376;HTU21D;62812;55.188;61.302;2023-10-31T04:58:23;0.65;81.02
74376;HTU21D;62812;55.188;61.302;2023-10-31T05:00:56;0.68;80.69
74376;HTU21D;62812;55.188;61.302;2023-10-31T05:03:23;0.73;80.40
74376;HTU21D;62812;55.188;61.302;2023-10-31T05:05:50;0.76;80.69
74376;HTU21D;62812;55.188;61.302;2023-10-31T05:08:16;0.79;80.09
74376;HTU21D;62812;55.188;61.302;2023-10-31T05:10:44;0.78;79.95
74376;HTU21D;62812;55.188;61.302;2023-10-31T05:13:13;0.82;80.00
74376;HTU21D;62812;55.188;61.302;2023-10-31T05:15:41;0.83;79.62
74376;HTU21D;62812;55.188;61.302;2023-10-31T05:18:09;0.89;79.58
74376;HTU21D;62812;55.188;61.302;2023-10-31T05:20:35;0.93;79.66
74376;HTU21D;62812;55.188;61.302;2023-10-31T05:23:02;0.95;78.94
74376;HTU21D;62812;55.188;61.302;2023-10-31T05:25:29;1.01;79.12
74376;HTU21D;62812;55.188;61.302;2023-10-31T05:27:56;1.07;79.02
74376;HTU21D;62812;55.188;61.302;2023-10-31T05:30:23;1.12;78.94
74376;HTU21D;62812;55.188;61.302;2023-10-31T05:32:51;1.16;78.53
74376;HTU21D;62812;55.188;61.302;2023-10-31T05:35:17;1.19;79.01
74376;HTU21D;62812;55.188;61.302;2023-10-31T05:37:45;1.26;79.12
74376;HTU21D;62812;55.188;61.302;2023-10-31T05:40:15;1.35;78.84
74376;HTU21D;62812;55.188;61.302;2023-10-31T05:42:43;1.46;77.80
74376;HTU21D;62812;55.188;61.302;2023-10-31T05:45:13;1.52;78.01
74376;HTU21D;62812;55.188;61.302;2023-10-31T05:47:40;1.54;77.67
74376;HTU21D;62812;55.188;61.302;2023-10-31T05:50:15;1.56;77.91
74376;HTU21D;62812;55.188;61.302;2023-10-31T05:52:42;1.56;77.85
74376;HTU21D;62812;55.188;61.302;2023-10-31T05:55:09;1.60;78.06
74376;HTU21D;62812;55.188;61.302;2023-10-31T05:57:37;1.63;77.94
74376;HTU21D;62812;55.188;61.302;2023-10-31T06:00:04;1.66;77.95
74376;HTU21D;62812;55.188;61.302;2023-10-31T06:02:31;1.69;77.69
74376;HTU21D;62812;55.188;61.302;2023-10-31T06:04:59;1.73;77.77
74376;HTU21D;62812;55.188;61.302;2023-10-31T06:07:27;1.77;77.60
74376;HTU21D;62812;55.188;61.302;2023-10-31T06:09:54;1.75;77.76
74376;HTU21D;62812;55.188;61.302;2023-10-31T06:12:21;1.72;77.47
74376;HTU21D;62812;55.188;61.302;2023-10-31T06:14:49;1.78;77.50
74376;HTU21D;62812;55.188;61.302;2023-10-31T06:17:15;1.83;77.56
74376;HTU21D;62812;55.188;61.302;2023-10-31T06:19:42;1.86;76.91
74376;HTU21D;62812;55.188;61.302;2023-10-31T06:22:12;1.84;77.03
74376;HTU21D;62812;55.188;61.302;2023-10-31T06:24:52;1.85;77.52
74376;HTU21D;62812;55.188;61.302;2023-10-31T06:27:21;1.92;77.44
74376;HTU21D;62812;55.188;61.302;2023-10-31T06:29:48;1.98;77.37
74376;HTU21D;62812;55.188;61.302;2023-10-31T06:32:15;2.05;76.79
74376;HTU21D;62812;55.188;61.302;2023-10-31T06:34:42;2.09;76.78
74376;HTU21D;62812;55.188;61.302;2023-10-31T06:37:08;2.13;75.99
74376;HTU21D;62812;55.188;61.302;2023-10-31T06:39:35;2.11;75.76
74376;HTU21D;62812;55.188;61.302;2023-10-31T06:42:05;2.11;75.97
74376;HTU21D;62812;55.188;61.302;2023-10-31T06:44:32;2.20;76.72
74376;HTU21D;62812;55.188;61.302;2023-10-31T06:46:58;2.30;75.62
74376;HTU21D;62812;55.188;61.302;2023-10-31T06:49:28;2.35;75.83
74376;HTU21D;62812;55.188;61.302;2023-10-31T06:51:56;2.39;74.96
74376;HTU21D;62812;55.188;61.302;2023-10-31T06:54:22;2.44;74.83
74376;HTU21D;62812;55.188;61.302;2023-10-31T06:56:49;2.43;74.62
74376;HTU21D;62812;55.188;61.302;2023-10-31T06:59:17;2.43;74.99
74376;HTU21D;62812;55.188;61.302;2023-10-31T07:01:44;2.49;74.94
74376;HTU21D;62812;55.188;61.302;2023-10-31T07:04:13;2.57;75.15
74376;HTU21D;62812;55.188;61.302;2023-10-31T07:06:41;2.67;74.44
74376;HTU21D;62812;55.188;61.302;2023-10-31T07:09:09;2.66;74.15
74376;HTU21D;62812;55.188;61.302;2023-10-31T07:11:36;2.61;74.35
74376;HTU21D;62812;55.188;61.302;2023-10-31T07:14:04;2.64;74.06
74376;HTU21D;62812;55.188;61.302;2023-10-31T07:16:37;2.66;73.34
74376;HTU21D;62812;55.188;61.302;2023-10-31T07:19:05;2.59;73.88
74376;HTU21D;62812;55.188;61.302;2023-10-31T07:21:32;2.64;74.22
74376;HTU21D;62812;55.188;61.302;2023-10-31T07:23:59;2.62;74.00
74376;HTU21D;62812;55.188;61.302;2023-10-31T07:26:26;2.66;73.74
74376;HTU21D;62812;55.188;61.302;2023-10-31T07:28:53;2.69;74.15
74376;HTU21D;62812;55.188;61.302;2023-10-31T07:31:22;2.75;73.50
74376;HTU21D;62812;55.188;61.302;2023-10-31T07:33:50;2.81;73.76
74376;HTU21D;62812;55.188;61.302;2023-10-31T07:36:17;2.88;73.06
74376;HTU21D;62812;55.188;61.302;2023-10-31T07:38:44;2.91;73.24
74376;HTU21D;62812;55.188;61.302;2023-10-31T07:41:10;2.97;73.15
74376;HTU21D;62812;55.188;61.302;2023-10-31T07:43:37;2.97;72.67
74376;HTU21D;62812;55.188;61.302;2023-10-31T07:46:05;2.98;72.83
74376;HTU21D;62812;55.188;61.302;2023-10-31T07:48:31;3.03;72.19
74376;HTU21D;62812;55.188;61.302;2023-10-31T07:51:01;3.04;71.98
74376;HTU21D;62812;55.188;61.302;2023-10-31T07:53:30;3.10;72.06
74376;HTU21D;62812;55.188;61.302;2023-10-31T07:55:57;3.17;72.38
74376;HTU21D;62812;55.188;61.302;2023-10-31T07:58:26;3.21;70.69
74376;HTU21D;62812;55.188;61.302;2023-10-31T08:00:53;3.24;71.05
74376;HTU21D;62812;55.188;61.302;2023-10-31T08:03:20;3.30;70.52
74376;HTU21D;62812;55.188;61.302;2023-10-31T08:05:49;3.39;69.62
74376;HTU21D;62812;55.188;61.302;2023-10-31T08:08:17;3.52;70.60
74376;HTU21D;62812;55.188;61.302;2023-10-31T08:10:44;3.61;69.29
74376;HTU21D;62812;55.188;61.302;2023-10-31T08:13:13;3.69;69.07
74376;HTU21D;62812;55.188;61.302;2023-10-31T08:15:44;3.70;69.20
74376;HTU21D;62812;55.188;61.302;2023-10-31T08:18:15;3.75;68.62
74376;HTU21D;62812;55.188;61.302;2023-10-31T08:20:41;3.76;68.23
74376;HTU21D;62812;55.188;61.302;2023-10-31T08:23:14;3.78;68.94
74376;HTU21D;62812;55.188;61.302;2023-10-31T08:25:42;3.77;68.27
74376;HTU21D;62812;55.188;61.302;2023-10-31T08:28:10;3.78;67.77
74376;HTU21D;62812;55.188;61.302;2023-10-31T08:30:37;3.78;67.60
74376;HTU21D;62812;55.188;61.302;2023-10-31T08:33:05;3.86;68.33
74376;HTU21D;62812;55.188;61.302;2023-10-31T08:35:32;3.91;68.41
74376;HTU21D;62812;55.188;61.302;2023-10-31T08:37:59;3.99;67.78
74376;HTU21D;62812;55.188;61.302;2023-10-31T08:40:26;4.07;67.88
74376;HTU21D;62812;55.188;61.302;2023-10-31T08:42:56;4.16;67.14
74376;HTU21D;62812;55.188;61.302;2023-10-31T08:45:23;4.18;67.73
74376;HTU21D;62812;55.188;61.302;2023-10-31T08:47:50;4.19;67.19
74376;HTU21D;62812;55.188;61.302;2023-10-31T08:50:16;4.20;66.51
74376;HTU21D;62812;55.188;61.302;2023-10-31T08:52:46;4.22;66.23
74376;HTU21D;62812;55.188;61.302;2023-10-31T08:55:13;4.23;66.75
74376;HTU21D;62812;55.188;61.302;2023-10-31T08:57:40;4.28;66.64
74376;HTU21D;62812;55.188;61.302;2023-10-31T09:00:11;4.24;66.70
74376;HTU21D;62812;55.188;61.302;2023-10-31T09:02:41;4.21;66.14
74376;HTU21D;62812;55.188;61.302;2023-10-31T09:05:09;4.24;65.99
74376;HTU21D;62812;55.188;61.302;2023-10-31T09:07:36;4.20;66.20
74376;HTU21D;62812;55.188;61.302;2023-10-31T09:10:04;4.15;66.10
74376;HTU21D;62812;55.188;61.302;2023-10-31T09:12:31;4.07;66.94
74376;HTU21D;62812;55.188;61.302;2023-10-31T09:14:58;3.95;66.81
74376;HTU21D;62812;55.188;61.302;2023-10-31T09:17:27;3.93;67.57
74376;HTU21D;62812;55.188;61.302;2023-10-31T09:19:53;3.94;67.49
74376;HTU21D;62812;55.188;61.302;2023-10-31T09:22:21;3.98;67.94
74376;HTU21D;62812;55.188;61.302;2023-10-31T09:24:48;4.01;68.26
74376;HTU21D;62812;55.188;61.302;2023-10-31T09:27:15;4.05;67.74
74376;HTU21D;62812;55.188;61.302;2023-10-31T09:29:41;4.06;67.88
74376;HTU21D;62812;55.188;61.302;2023-10-31T09:32:14;4.05;67.61
74376;HTU21D;62812;55.188;61.302;2023-10-31T09:34:43;4.06;67.87
74376;HTU21D;62812;55.188;61.302;2023-10-31T09:37:12;4.04;67.30
74376;HTU21D;62812;55.188;61.302;2023-10-31T09:39:39;3.92;67.62
74376;HTU21D;62812;55.188;61.302;2023-10-31T09:42:07;3.79;68.01
74376;HTU21D;62812;55.188;61.302;2023-10-31T09:44:34;3.88;68.02
74376;HTU21D;62812;55.188;61.302;2023-10-31T09:47:01;3.89;68.88
74376;HTU21D;62812;55.188;61.302;2023-10-31T09:49:28;3.94;69.61
74376;HTU21D;62812;55.188;61.302;2023-10-31T09:51:56;3.94;67.59
74376;HTU21D;62812;55.188;61.302;2023-10-31T09:54:25;3.91;67.88
74376;HTU21D;62812;55.188;61.302;2023-10-31T09:56:56;3.84;68.05
74376;HTU21D;62812;55.188;61.302;2023-10-31T09:59:23;3.79;68.41
74376;HTU21D;62812;55.188;61.302;2023-10-31T10:01:50;3.70;68.81
74376;HTU21D;62812;55.188;61.302;2023-10-31T10:04:18;3.64;69.78
74376;HTU21D;62812;55.188;61.302;2023-10-31T10:06:52;3.59;69.98
74376;HTU21D;62812;55.188;61.302;2023-10-31T10:09:21;3.70;70.79
74376;HTU21D;62812;55.188;61.302;2023-10-31T10:11:48;3.79;69.48
74376;HTU21D;62812;55.188;61.302;2023-10-31T10:14:16;3.61;69.15
74376;HTU21D;62812;55.188;61.302;2023-10-31T10:16:43;3.58;70.90
74376;HTU21D;62812;55.188;61.302;2023-10-31T10:19:17;3.69;70.15
74376;HTU21D;62812;55.188;61.302;2023-10-31T10:21:49;3.76;69.83
74376;HTU21D;62812;55.188;61.302;2023-10-31T10:24:16;3.77;70.50
74376;HTU21D;62812;55.188;61.302;2023-10-31T10:26:45;3.89;70.86
74376;HTU21D;62812;55.188;61.302;2023-10-31T10:29:13;3.95;70.29
74376;HTU21D;62812;55.188;61.302;2023-10-31T10:31:40;3.98;68.71
74376;HTU21D;62812;55.188;61.302;2023-10-31T10:34:08;3.99;69.52
74376;HTU21D;62812;55.188;61.302;2023-10-31T10:36:35;4.00;68.95
74376;HTU21D;62812;55.188;61.302;2023-10-31T10:39:04;3.85;70.29
74376;HTU21D;62812;55.188;61.302;2023-10-31T10:41:34;3.84;70.66
74376;HTU21D;62812;55.188;61.302;2023-10-31T10:44:06;3.60;70.26
74376;HTU21D;62812;55.188;61.302;2023-10-31T10:46:34;3.34;71.29
74376;HTU21D;62812;55.188;61.302;2023-10-31T10:49:04;3.23;72.00
74376;HTU21D;62812;55.188;61.302;2023-10-31T10:51:45;3.09;72.90
74376;HTU21D;62812;55.188;61.302;2023-10-31T10:54:19;2.99;73.73
74376;HTU21D;62812;55.188;61.302;2023-10-31T10:56:54;2.91;74.16
74376;HTU21D;62812;55.188;61.302;2023-10-31T10:59:33;3.09;73.96
74376;HTU21D;62812;55.188;61.302;2023-10-31T11:02:06;3.26;72.73
74376;HTU21D;62812;55.188;61.302;2023-10-31T11:04:33;3.28;72.26
74376;HTU21D;62812;55.188;61.302;2023-10-31T11:07:02;3.34;72.67
74376;HTU21D;62812;55.188;61.302;2023-10-31T11:09:31;3.39;71.79
74376;HTU21D;62812;55.188;61.302;2023-10-31T11:11:59;3.46;72.59
74376;HTU21D;62812;55.188;61.302;2023-10-31T11:14:30;3.48;70.89
74376;HTU21D;62812;55.188;61.302;2023-10-31T11:17:01;3.41;71.15
74376;HTU21D;62812;55.188;61.302;2023-10-31T11:19:55;3.25;72.25
74376;HTU21D;62812;55.188;61.302;2023-10-31T11:22:24;3.27;72.26
74376;HTU21D;62812;55.188;61.302;2023-10-31T11:24:51;3.28;72.38
74376;HTU21D;62812;55.188;61.302;2023-10-31T11:27:23;3.15;72.19
74376;HTU21D;62812;55.188;61.302;2023-10-31T11:29:55;3.11;73.27
74376;HTU21D;62812;55.188;61.302;2023-10-31T11:32:22;3.13;72.72
74376;HTU21D;62812;55.188;61.302;2023-10-31T11:34:53;2.97;72.89
74376;HTU21D;62812;55.188;61.302;2023-10-31T11:37:26;2.87;73.73
74376;HTU21D;62812;55.188;61.302;2023-10-31T11:40:19;2.80;74.44
74376;HTU21D;62812;55.188;61.302;2023-10-31T11:42:48;2.71;74.98
74376;HTU21D;62812;55.188;61.302;2023-10-31T11:45:29;2.67;75.43
74376;HTU21D;62812;55.188;61.302;2023-10-31T11:47:56;2.59;75.76
74376;HTU21D;62812;55.188;61.302;2023-10-31T11:50:23;2.50;76.54
74376;HTU21D;62812;55.188;61.302;2023-10-31T11:53:00;2.51;76.72
74376;HTU21D;62812;55.188;61.302;2023-10-31T11:55:32;2.53;76.44
74376;HTU21D;62812;55.188;61.302;2023-10-31T11:58:12;2.50;76.24
74376;HTU21D;62812;55.188;61.302;2023-10-31T12:00:40;2.44;76.67
74376;HTU21D;62812;55.188;61.302;2023-10-31T12:03:09;2.38;76.89
74376;HTU21D;62812;55.188;61.302;2023-10-31T12:05:36;2.31;76.94
74376;HTU21D;62812;55.188;61.302;2023-10-31T12:08:03;2.37;77.16
74376;HTU21D;62812;55.188;61.302;2023-10-31T12:10:30;2.38;77.15
74376;HTU21D;62812;55.188;61.302;2023-10-31T12:12:58;2.34;77.46
74376;HTU21D;62812;55.188;61.302;2023-10-31T12:15:25;2.26;77.79
74376;HTU21D;62812;55.188;61.302;2023-10-31T12:17:57;2.31;77.98
74376;HTU21D;62812;55.188;61.302;2023-10-31T12:20:26;2.29;77.95
74376;HTU21D;62812;55.188;61.302;2023-10-31T12:23:11;2.27;78.08
74376;HTU21D;62812;55.188;61.302;2023-10-31T12:28:22;2.27;78.30
74376;HTU21D;62812;55.188;61.302;2023-10-31T12:30:50;2.20;78.66
74376;HTU21D;62812;55.188;61.302;2023-10-31T12:33:21;2.21;78.95
74376;HTU21D;62812;55.188;61.302;2023-10-31T12:35:54;2.24;78.96
74376;HTU21D;62812;55.188;61.302;2023-10-31T12:38:28;2.25;78.62
74376;HTU21D;62812;55.188;61.302;2023-10-31T12:40:57;2.16;78.89
74376;HTU21D;62812;55.188;61.302;2023-10-31T12:43:25;2.17;79.24
74376;HTU21D;62812;55.188;61.302;2023-10-31T12:45:54;2.14;79.67
74376;HTU21D;62812;55.188;61.302;2023-10-31T12:48:25;2.13;79.83
74376;HTU21D;62812;55.188;61.302;2023-10-31T12:51:06;2.10;80.01
74376;HTU21D;62812;55.188;61.302;2023-10-31T12:53:36;2.11;80.07
74376;HTU21D;62812;55.188;61.302;2023-10-31T12:56:04;2.06;80.33
74376;HTU21D;62812;55.188;61.302;2023-10-31T12:58:32;2.00;80.88
74376;HTU21D;62812;55.188;61.302;2023-10-31T13:01:00;1.95;80.79
74376;HTU21D;62812;55.188;61.302;2023-10-31T13:03:29;1.85;81.41
74376;HTU21D;62812;55.188;61.302;2023-10-31T13:05:56;1.92;81.22
74376;HTU21D;62812;55.188;61.302;2023-10-31T13:08:22;1.93;81.35
74376;HTU21D;62812;55.188;61.302;2023-10-31T13:10:50;1.92;81.78
74376;HTU21D;62812;55.188;61.302;2023-10-31T13:13:17;1.90;82.01
74376;HTU21D;62812;55.188;61.302;2023-10-31T13:15:43;1.85;82.36
74376;HTU21D;62812;55.188;61.302;2023-10-31T13:18:11;1.86;82.53
74376;HTU21D;62812;55.188;61.302;2023-10-31T13:20:39;1.85;82.45
74376;HTU21D;62812;55.188;61.302;2023-10-31T13:23:07;1.86;82.69
74376;HTU21D;62812;55.188;61.302;2023-10-31T13:25:36;1.86;82.75
74376;HTU21D;62812;55.188;61.302;2023-10-31T13:28:05;1.86;82.78
74376;HTU21D;62812;55.188;61.302;2023-10-31T13:30:35;1.81;83.13
74376;HTU21D;62812;55.188;61.302;2023-10-31T13:33:02;1.79;83.44
74376;HTU21D;62812;55.188;61.302;2023-10-31T13:35:29;1.82;83.40
74376;HTU21D;62812;55.188;61.302;2023-10-31T13:37:59;1.78;83.49
74376;HTU21D;62812;55.188;61.302;2023-10-31T13:40:27;1.79;83.52
74376;HTU21D;62812;55.188;61.302;2023-10-31T13:42:54;1.84;83.53
74376;HTU21D;62812;55.188;61.302;2023-10-31T13:45:20;1.96;82.79
74376;HTU21D;62812;55.188;61.302;2023-10-31T13:47:47;1.88;82.91
74376;HTU21D;62812;55.188;61.302;2023-10-31T13:50:15;1.85;83.00
74376;HTU21D;62812;55.188;61.302;2023-10-31T13:52:43;1.84;83.44
74376;HTU21D;62812;55.188;61.302;2023-10-31T13:55:15;1.84;83.16
74376;HTU21D;62812;55.188;61.302;2023-10-31T13:57:42;1.82;83.38
74376;HTU21D;62812;55.188;61.302;2023-10-31T14:00:11;1.82;83.54
74376;HTU21D;62812;55.188;61.302;2023-10-31T14:02:38;1.77;83.70
74376;HTU21D;62812;55.188;61.302;2023-10-31T14:05:06;1.73;83.71
74376;HTU21D;62812;55.188;61.302;2023-10-31T14:07:33;1.76;83.94
74376;HTU21D;62812;55.188;61.302;2023-10-31T14:10:02;1.79;83.97
74376;HTU21D;62812;55.188;61.302;2023-10-31T14:12:33;1.83;83.75
74376;HTU21D;62812;55.188;61.302;2023-10-31T14:15:00;1.82;84.16
74376;HTU21D;62812;55.188;61.302;2023-10-31T14:17:30;1.79;84.13
74376;HTU21D;62812;55.188;61.302;2023-10-31T14:19:58;1.79;84.56
74376;HTU21D;62812;55.188;61.302;2023-10-31T14:22:26;1.81;84.20
74376;HTU21D;62812;55.188;61.302;2023-10-31T14:24:54;1.80;84.39
74376;HTU21D;62812;55.188;61.302;2023-10-31T14:27:21;1.80;84.48
74376;HTU21D;62812;55.188;61.302;2023-10-31T14:29:49;1.78;84.72
74376;HTU21D;62812;55.188;61.302;2023-10-31T14:32:16;1.77;85.12
74376;HTU21D;62812;55.188;61.302;2023-10-31T14:34:43;1.76;85.44
74376;HTU21D;62812;55.188;61.302;2023-10-31T14:37:12;1.78;85.55
74376;HTU21D;62812;55.188;61.302;2023-10-31T14:39:39;1.78;85.66
74376;HTU21D;62812;55.188;61.302;2023-10-31T14:42:06;1.80;85.93
74376;HTU21D;62812;55.188;61.302;2023-10-31T14:44:33;1.86;85.87
74376;HTU21D;62812;55.188;61.302;2023-10-31T14:47:04;1.91;85.26
74376;HTU21D;62812;55.188;61.302;2023-10-31T14:49:32;1.96;84.90
74376;HTU21D;62812;55.188;61.302;2023-10-31T14:51:59;2.06;84.29
74376;HTU21D;62812;55.188;61.302;2023-10-31T14:54:27;2.06;84.15
74376;HTU21D;62812;55.188;61.302;2023-10-31T14:56:54;2.02;84.50
74376;HTU21D;62812;55.188;61.302;2023-10-31T14:59:22;1.99;84.90
74376;HTU21D;62812;55.188;61.302;2023-10-31T15:01:51;1.94;85.12
74376;HTU21D;62812;55.188;61.302;2023-10-31T15:04:19;1.94;85.28
74376;HTU21D;62812;55.188;61.302;2023-10-31T15:06:46;1.88;85.43
74376;HTU21D;62812;55.188;61.302;2023-10-31T15:09:14;1.85;85.51
74376;HTU21D;62812;55.188;61.302;2023-10-31T15:11:41;1.79;85.73
74376;HTU21D;62812;55.188;61.302;2023-10-31T15:14:08;1.81;85.51
74376;HTU21D;62812;55.188;61.302;2023-10-31T15:16:41;1.81;85.44
74376;HTU21D;62812;55.188;61.302;2023-10-31T15:19:10;1.79;85.29
74376;HTU21D;62812;55.188;61.302;2023-10-31T15:21:38;1.75;85.43